0J4 weather

Florala Municipal Airport
Florala, Alabama, United States

Public forecast

Using degrees Fahrenheit for public forecast. Weather courtesy of forecast.io.

METAR (pilot weather report)

Retrieved 2017/12/11 03:58 UTC (20 minutes ago):

K0J4 110358Z AUTO 00000KT 10SM CLR 03/00 A3036 RMK AO2 SLP280 T00280000 PWINO

TAF (pilot weather forecast)

Closest forecast is Duke Field, 25.9 nm (48.0 km) SSW. Retrieved 2017/12/11 02:14 UTC (2 hours ago):

TAF COR KEGI 110210Z 1102/1208 30006KT 9999 SKC QNH3028INS BECMG 1116/1117 26009KT 9999 SKC QNH3025INS TX17/1119Z TNM01/1111Z LAST NO AMDS AFT 1102 NEXT 1110 FCST BY USAF WX MET TECH